createdAt,value
2022-11-12T00:02:19.634Z,12.88
2022-11-12T00:05:06.265Z,13.27
2022-11-12T00:07:52.483Z,12.85
2022-11-12T00:10:38.616Z,12.38
2022-11-12T00:13:24.269Z,12.32
2022-11-12T00:16:10.378Z,13.20
2022-11-12T00:18:55.997Z,13.45
2022-11-12T00:21:42.486Z,13.45
2022-11-12T00:24:28.332Z,13.27
2022-11-12T00:27:14.403Z,12.95
2022-11-12T00:30:00.700Z,12.23
2022-11-12T00:32:47.133Z,12.38
2022-11-12T00:35:33.535Z,12.57
2022-11-12T00:38:19.499Z,11.90
2022-11-12T00:41:05.634Z,11.77
2022-11-12T00:43:56.285Z,12.80
2022-11-12T00:46:42.442Z,12.38
2022-11-12T00:49:28.856Z,12.25
2022-11-12T00:52:15.058Z,12.13
2022-11-12T00:55:01.860Z,12.00
2022-11-12T00:57:47.911Z,12.20
2022-11-12T01:00:34.006Z,11.38
2022-11-12T01:03:20.307Z,11.40
2022-11-12T01:06:09.027Z,12.15
2022-11-12T01:08:55.712Z,11.57
2022-11-12T01:11:41.676Z,11.30
2022-11-12T01:14:27.272Z,11.73
2022-11-12T01:17:13.170Z,10.85
2022-11-12T01:19:59.541Z,10.73
2022-11-12T01:22:45.860Z,11.90
2022-11-12T01:25:31.537Z,11.52
2022-11-12T01:28:17.535Z,11.70
2022-11-12T01:31:27.217Z,10.88
2022-11-12T01:34:13.589Z,11.95
2022-11-12T01:36:59.472Z,10.77
2022-11-12T01:39:45.509Z,11.18
2022-11-12T01:42:33.193Z,12.48
2022-11-12T01:45:19.538Z,12.23
2022-11-12T01:48:05.615Z,11.55
2022-11-12T01:50:52.333Z,11.55
2022-11-12T01:53:42.480Z,12.75
2022-11-12T01:56:30.497Z,11.52
2022-11-12T01:59:23.740Z,10.88
2022-11-12T02:02:11.289Z,11.95
2022-11-12T02:04:57.946Z,11.75
2022-11-12T02:07:45.644Z,13.90
2022-11-12T02:10:31.721Z,11.68
2022-11-12T02:13:37.162Z,12.57
2022-11-12T02:16:23.274Z,12.88
2022-11-12T02:19:12.256Z,13.00
2022-11-12T02:21:58.060Z,12.98
2022-11-12T02:24:44.550Z,12.70
2022-11-12T02:27:30.599Z,13.77
2022-11-12T02:30:17.344Z,14.50
2022-11-12T02:33:04.108Z,14.35
2022-11-12T02:35:50.300Z,15.18
2022-11-12T02:38:36.205Z,14.02
2022-11-12T02:41:22.738Z,14.25
2022-11-12T02:44:08.709Z,15.68
2022-11-12T02:46:54.950Z,15.27
2022-11-12T02:49:41.100Z,15.20
2022-11-12T02:52:27.297Z,15.15
2022-11-12T02:55:13.957Z,14.90
2022-11-12T02:58:00.771Z,15.68
2022-11-12T03:00:47.560Z,15.07
2022-11-12T03:03:33.910Z,14.50
2022-11-12T03:06:19.694Z,15.95
2022-11-12T03:09:05.518Z,15.43
2022-11-12T03:11:51.240Z,16.38
2022-11-12T03:14:37.405Z,17.42
2022-11-12T03:17:23.581Z,15.02
2022-11-12T03:20:11.145Z,15.10
2022-11-12T03:23:02.439Z,15.35
2022-11-12T03:25:48.405Z,15.00
2022-11-12T03:28:34.190Z,16.40
2022-11-12T03:31:20.481Z,15.80
2022-11-12T03:34:06.224Z,16.08
2022-11-12T03:36:52.202Z,16.42
2022-11-12T03:39:38.173Z,15.77
2022-11-12T03:42:24.505Z,15.68
2022-11-12T03:45:10.616Z,16.50
2022-11-12T03:47:58.380Z,16.77
2022-11-12T03:50:44.279Z,16.85
2022-11-12T03:53:30.784Z,17.25
2022-11-12T03:56:16.316Z,17.10
2022-11-12T03:59:02.540Z,18.42
2022-11-12T04:01:48.568Z,17.17
2022-11-12T04:04:53.377Z,16.75
2022-11-12T04:07:58.026Z,16.33
2022-11-12T04:10:44.223Z,16.45
2022-11-12T04:13:30.515Z,15.50
2022-11-12T04:16:37.567Z,17.38
2022-11-12T04:19:41.753Z,17.55
2022-11-12T04:22:27.828Z,16.48
2022-11-12T04:25:32.306Z,16.33
2022-11-12T04:28:18.574Z,17.85
2022-11-12T04:31:04.522Z,16.00
2022-11-12T04:33:50.755Z,17.58
2022-11-12T04:36:36.866Z,17.00
2022-11-12T04:39:22.770Z,16.25
2022-11-12T04:42:28.622Z,16.58
2022-11-12T04:45:15.040Z,16.80
2022-11-12T04:48:01.036Z,17.73
2022-11-12T04:50:50.148Z,17.30
2022-11-12T04:53:36.166Z,17.27
2022-11-12T04:56:22.528Z,17.05
2022-11-12T04:59:08.615Z,16.73
2022-11-12T05:01:54.590Z,16.55
2022-11-12T05:04:40.367Z,17.00
2022-11-12T05:07:26.662Z,17.35
2022-11-12T05:10:12.450Z,17.48
2022-11-12T05:12:58.914Z,17.58
2022-11-12T05:15:45.006Z,18.05
2022-11-12T05:18:31.007Z,17.15
2022-11-12T05:21:40.575Z,19.70
2022-11-12T05:24:41.703Z,18.55
2022-11-12T05:27:28.350Z,19.48
2022-11-12T05:30:14.617Z,19.23
2022-11-12T05:33:00.208Z,18.05
2022-11-12T05:35:46.037Z,18.70
2022-11-12T05:38:32.232Z,19.42
2022-11-12T05:41:20.314Z,19.92
2022-11-12T05:44:06.256Z,18.98
2022-11-12T05:46:52.964Z,21.00
2022-11-12T05:49:39.333Z,21.15
2022-11-12T05:52:25.767Z,21.77
2022-11-12T05:55:11.716Z,20.88
2022-11-12T05:57:57.891Z,21.05
2022-11-12T06:00:43.745Z,23.02
2022-11-12T06:03:30.033Z,20.90
2022-11-12T06:06:16.030Z,23.15
2022-11-12T06:09:02.522Z,21.70
2022-11-12T06:11:48.750Z,22.38
2022-11-12T06:14:34.974Z,21.40
2022-11-12T06:17:21.695Z,21.40
2022-11-12T06:20:08.800Z,21.40
2022-11-12T06:22:54.724Z,20.33
2022-11-12T06:25:41.128Z,20.52
2022-11-12T06:28:27.716Z,20.90
2022-11-12T06:31:14.630Z,20.40
2022-11-12T06:34:00.539Z,20.50
2022-11-12T06:36:48.916Z,21.90
2022-11-12T06:39:34.748Z,20.95
2022-11-12T06:42:21.249Z,20.83
2022-11-12T06:45:08.064Z,21.20
2022-11-12T06:47:58.505Z,21.02
2022-11-12T06:50:44.476Z,21.40
2022-11-12T06:53:30.820Z,21.80
2022-11-12T06:56:16.773Z,21.88
2022-11-12T06:59:03.131Z,21.52
2022-11-12T07:01:49.298Z,21.42
2022-11-12T07:04:35.423Z,24.20
2022-11-12T07:07:21.545Z,22.23
2022-11-12T07:10:08.565Z,22.98
2022-11-12T07:12:54.966Z,22.50
2022-11-12T07:15:41.413Z,23.65
2022-11-12T07:18:28.699Z,22.65
2022-11-12T07:21:17.180Z,23.40
2022-11-12T07:24:02.747Z,23.20
2022-11-12T07:26:48.804Z,23.88
2022-11-12T07:29:47.478Z,25.15
2022-11-12T07:32:38.647Z,24.67
2022-11-12T07:35:29.307Z,27.13
2022-11-12T07:38:15.472Z,26.50
2022-11-12T07:41:04.125Z,25.52
2022-11-12T07:43:52.055Z,25.60
2022-11-12T07:46:38.261Z,25.63
2022-11-12T07:49:24.491Z,26.80
2022-11-12T07:52:10.058Z,26.58
2022-11-12T07:54:56.192Z,27.48
2022-11-12T07:57:42.003Z,27.10
2022-11-12T08:00:28.165Z,27.50
2022-11-12T08:03:14.130Z,26.73
2022-11-12T08:06:01.517Z,24.85
2022-11-12T08:08:47.676Z,27.08
2022-11-12T08:11:34.730Z,27.15
2022-11-12T08:14:21.096Z,27.83
2022-11-12T08:17:07.531Z,28.23
2022-11-12T08:19:55.342Z,25.95
2022-11-12T08:22:45.064Z,28.48
2022-11-12T08:25:35.030Z,27.33
2022-11-12T08:28:21.502Z,27.40
2022-11-12T08:31:16.091Z,26.75
2022-11-12T08:34:12.445Z,27.38
2022-11-12T08:36:58.812Z,28.02
2022-11-12T08:39:45.388Z,28.33
2022-11-12T08:42:31.168Z,27.08
2022-11-12T08:45:17.209Z,27.27
2022-11-12T08:48:05.967Z,28.98
2022-11-12T08:50:52.204Z,28.98
2022-11-12T08:53:38.179Z,27.98
2022-11-12T08:56:24.531Z,28.98
2022-11-12T08:59:10.450Z,27.88
2022-11-12T09:01:56.827Z,28.95
2022-11-12T09:04:42.651Z,27.63
2022-11-12T09:07:48.805Z,29.13
2022-11-12T09:10:34.550Z,30.30
2022-11-12T09:13:21.212Z,30.10
2022-11-12T09:16:08.021Z,29.23
2022-11-12T09:18:53.994Z,26.98
2022-11-12T09:21:40.501Z,28.10
2022-11-12T09:24:27.304Z,27.17
2022-11-12T09:27:12.948Z,28.80
2022-11-12T09:29:59.336Z,28.33
2022-11-12T09:32:45.096Z,26.15
2022-11-12T09:35:31.104Z,27.13
2022-11-12T09:38:18.289Z,27.60
2022-11-12T09:41:18.078Z,27.08
2022-11-12T09:44:09.280Z,26.98
2022-11-12T09:47:08.261Z,27.15
2022-11-12T09:50:02.122Z,25.67
2022-11-12T09:52:50.740Z,23.73
2022-11-12T09:55:43.322Z,25.30
2022-11-12T09:58:30.050Z,24.88
2022-11-12T10:01:38.085Z,23.80
2022-11-12T10:04:46.619Z,24.00
2022-11-12T10:07:51.121Z,21.77
2022-11-12T10:10:49.091Z,23.00
2022-11-12T10:14:08.286Z,24.83
2022-11-12T10:17:19.369Z,24.30
2022-11-12T10:20:23.845Z,23.95
2022-11-12T10:23:20.133Z,24.52
2022-11-12T10:26:18.017Z,25.50
2022-11-12T10:29:23.082Z,24.65
2022-11-12T10:32:14.480Z,23.63
2022-11-12T10:35:00.545Z,24.00
2022-11-12T10:37:51.264Z,22.65
2022-11-12T10:40:41.605Z,21.67
2022-11-12T10:43:27.599Z,23.27
2022-11-12T10:46:20.573Z,23.08
2022-11-12T10:49:18.254Z,23.20
2022-11-12T10:52:04.805Z,23.45
2022-11-12T10:55:21.542Z,25.55
2022-11-12T10:58:16.732Z,23.83
2022-11-12T11:01:05.512Z,29.35
2022-11-12T11:03:56.339Z,27.23
2022-11-12T11:06:42.196Z,28.63
2022-11-12T11:09:28.362Z,26.17
2022-11-12T11:12:28.812Z,24.63
2022-11-12T11:15:24.350Z,22.13
2022-11-12T11:18:13.506Z,21.48
2022-11-12T11:21:21.314Z,21.40
2022-11-12T11:24:30.250Z,21.60
2022-11-12T11:27:54.233Z,25.13
2022-11-12T11:31:07.878Z,20.10
2022-11-12T11:37:26.135Z,20.05
2022-11-12T11:43:09.460Z,21.25
2022-11-12T11:46:21.022Z,20.83
2022-11-12T11:49:28.509Z,22.77
2022-11-12T11:52:52.441Z,21.67
2022-11-12T11:55:49.598Z,19.45
2022-11-12T11:59:01.944Z,19.58
2022-11-12T12:02:12.453Z,19.15
2022-11-12T12:05:26.659Z,25.15
2022-11-12T12:08:35.160Z,18.83
2022-11-12T12:11:49.010Z,21.85
2022-11-12T12:14:50.921Z,19.85
2022-11-12T12:17:43.135Z,18.48
2022-11-12T12:20:39.048Z,18.05
2022-11-12T12:23:42.027Z,17.58
2022-11-12T12:26:35.847Z,17.20
2022-11-12T12:29:27.904Z,17.20
2022-11-12T12:32:23.112Z,17.27
2022-11-12T12:35:24.621Z,18.08
2022-11-12T12:38:47.586Z,17.48
2022-11-12T12:42:04.929Z,17.10
2022-11-12T12:45:36.488Z,20.27
2022-11-12T12:48:29.932Z,21.20
2022-11-12T12:51:16.317Z,20.65
2022-11-12T12:54:02.482Z,17.33
2022-11-12T12:56:48.612Z,19.50
2022-11-12T12:59:34.950Z,18.83
2022-11-12T13:02:24.872Z,23.25
2022-11-12T13:05:27.965Z,22.42
2022-11-12T13:08:20.274Z,17.27
2022-11-12T13:11:06.844Z,17.65
2022-11-12T13:13:52.644Z,17.13
2022-11-12T13:16:51.268Z,16.52
2022-11-12T13:19:46.649Z,17.35
2022-11-12T13:22:32.693Z,16.88
2022-11-12T13:25:18.396Z,18.20
2022-11-12T13:28:07.055Z,17.50
2022-11-12T13:30:52.700Z,16.92
2022-11-12T13:33:39.285Z,17.08
2022-11-12T13:36:27.263Z,18.05
2022-11-12T13:39:19.405Z,34.17
2022-11-12T13:42:36.947Z,54.97
2022-11-12T13:45:25.737Z,36.20
2022-11-12T13:48:36.913Z,49.00
2022-11-12T13:51:26.881Z,76.00
2022-11-12T13:54:31.531Z,54.58
2022-11-12T13:57:21.060Z,27.90
2022-11-12T14:00:26.907Z,22.30
2022-11-12T14:03:17.983Z,20.98
2022-11-12T14:06:15.948Z,22.25
2022-11-12T14:09:24.171Z,16.33
2022-11-12T14:12:31.810Z,31.30
2022-11-12T14:16:02.602Z,25.05
2022-11-12T14:19:16.245Z,21.55
2022-11-12T14:22:13.382Z,20.85
2022-11-12T14:25:01.105Z,18.40
2022-11-12T14:27:51.540Z,19.95
2022-11-12T14:30:44.017Z,21.67
2022-11-12T14:33:31.892Z,19.33
2022-11-12T14:36:19.194Z,20.65
2022-11-12T14:39:06.843Z,20.75
2022-11-12T14:41:53.014Z,24.58
2022-11-12T14:44:39.360Z,22.75
2022-11-12T14:47:25.411Z,19.75
2022-11-12T14:50:21.345Z,24.27
2022-11-12T14:53:13.841Z,22.35
2022-11-12T14:56:01.473Z,19.08
2022-11-12T14:58:47.610Z,20.30
2022-11-12T15:04:45.247Z,21.63
2022-11-12T15:07:50.778Z,21.60
2022-11-12T15:10:43.566Z,21.20
2022-11-12T15:13:38.198Z,22.73
2022-11-12T15:16:27.839Z,23.98
2022-11-12T15:19:15.226Z,21.42
2022-11-12T15:22:02.617Z,22.67
2022-11-12T15:24:49.936Z,21.25
2022-11-12T15:27:41.937Z,21.80
2022-11-12T15:30:30.771Z,21.93
2022-11-12T15:33:21.856Z,22.23
2022-11-12T15:36:19.736Z,23.70
2022-11-12T15:39:12.815Z,21.33
2022-11-12T15:42:14.542Z,21.50
2022-11-12T15:45:03.515Z,22.08
2022-11-12T15:47:50.132Z,22.55
2022-11-12T15:50:36.347Z,22.38
2022-11-12T15:53:23.182Z,21.67
2022-11-12T15:56:12.897Z,23.08
2022-11-12T15:58:59.100Z,21.92
2022-11-12T16:01:44.856Z,26.20
2022-11-12T16:04:31.514Z,25.33
2022-11-12T16:07:17.465Z,23.55
2022-11-12T16:10:04.167Z,23.83
2022-11-12T16:12:51.330Z,23.13
2022-11-12T16:15:37.689Z,26.38
2022-11-12T16:18:23.867Z,25.50
2022-11-12T16:21:10.340Z,27.00
2022-11-12T16:23:56.502Z,26.17
2022-11-12T16:26:43.088Z,26.50
2022-11-12T16:29:29.224Z,26.40
2022-11-12T16:32:15.504Z,24.33
2022-11-12T16:35:01.799Z,23.17
2022-11-12T16:37:48.971Z,25.88
2022-11-12T16:40:35.033Z,25.33
2022-11-12T16:43:21.383Z,23.92
2022-11-12T16:46:15.532Z,24.17
2022-11-12T16:49:01.954Z,26.08
2022-11-12T16:51:48.616Z,25.05
2022-11-12T16:54:35.005Z,25.52
2022-11-12T16:57:21.293Z,24.83
2022-11-12T17:00:10.966Z,24.45
2022-11-12T17:02:57.007Z,23.25
2022-11-12T17:05:43.454Z,22.40
2022-11-12T17:08:33.763Z,23.98
2022-11-12T17:11:20.164Z,26.30
2022-11-12T17:14:06.964Z,27.15
2022-11-12T17:16:53.449Z,27.73
2022-11-12T17:19:39.384Z,28.60
2022-11-12T17:22:25.770Z,27.02
2022-11-12T17:25:11.854Z,27.52
2022-11-12T17:27:57.757Z,28.15
2022-11-12T17:30:43.443Z,25.40
2022-11-12T17:33:30.012Z,26.80
2022-11-12T17:36:21.780Z,25.98
2022-11-12T17:39:10.832Z,25.75
2022-11-12T17:41:56.902Z,24.92
2022-11-12T17:44:43.244Z,25.55
2022-11-12T17:47:29.452Z,26.35
2022-11-12T17:50:15.954Z,25.80
2022-11-12T17:53:02.037Z,24.90
2022-11-12T17:55:48.334Z,27.77
2022-11-12T17:58:34.403Z,26.20
2022-11-12T18:01:22.301Z,25.40
2022-11-12T18:04:10.950Z,24.83
2022-11-12T18:06:57.543Z,25.40
2022-11-12T18:09:43.537Z,25.85
2022-11-12T18:12:29.365Z,23.63
2022-11-12T18:15:17.183Z,23.90
2022-11-12T18:18:04.715Z,24.90
2022-11-12T18:20:50.971Z,23.50
2022-11-12T18:23:38.730Z,23.92
2022-11-12T18:26:24.662Z,26.80
2022-11-12T18:29:10.785Z,26.17
2022-11-12T18:31:57.033Z,22.83
2022-11-12T18:34:45.333Z,23.02
2022-11-12T18:37:30.936Z,23.42
2022-11-12T18:40:17.753Z,24.98
2022-11-12T18:43:03.704Z,24.60
2022-11-12T18:46:00.501Z,23.98
2022-11-12T18:48:47.539Z,23.13
2022-11-12T18:51:33.807Z,22.33
2022-11-12T18:54:19.941Z,21.67
2022-11-12T18:57:06.186Z,22.60
2022-11-12T18:59:55.105Z,21.85
2022-11-12T19:02:41.500Z,22.00
2022-11-12T19:05:27.265Z,23.50
2022-11-12T19:08:13.879Z,22.38
2022-11-12T19:11:01.258Z,22.05
2022-11-12T19:13:51.587Z,22.83
2022-11-12T19:16:42.617Z,21.13
2022-11-12T19:19:29.540Z,19.65
2022-11-12T19:22:15.246Z,25.10
2022-11-12T19:25:04.410Z,23.65
2022-11-12T19:27:50.596Z,22.55
2022-11-12T19:30:36.914Z,27.38
2022-11-12T19:33:23.391Z,33.38
2022-11-12T19:36:13.096Z,24.20
2022-11-12T19:39:00.297Z,22.27
2022-11-12T19:41:46.325Z,24.45
2022-11-12T19:44:32.374Z,24.20
2022-11-12T19:47:19.098Z,26.92
2022-11-12T19:50:05.613Z,25.73
2022-11-12T19:52:55.250Z,23.88
2022-11-12T19:55:41.217Z,30.42
2022-11-12T19:58:27.768Z,25.23
2022-11-12T20:01:16.397Z,23.83
2022-11-12T20:04:02.897Z,27.13
2022-11-12T20:06:48.767Z,25.88
2022-11-12T20:09:35.262Z,28.88
2022-11-12T20:12:21.527Z,27.30
2022-11-12T20:15:08.384Z,26.75
2022-11-12T20:17:54.191Z,26.67
2022-11-12T20:20:40.834Z,32.15
2022-11-12T20:23:27.240Z,30.48
2022-11-12T20:26:15.164Z,31.13
2022-11-12T20:29:01.305Z,31.92
2022-11-12T20:31:47.779Z,29.08
2022-11-12T20:34:33.701Z,32.30
2022-11-12T20:37:19.852Z,32.40
2022-11-12T20:40:06.295Z,31.88
2022-11-12T20:42:52.482Z,32.00
2022-11-12T20:45:38.477Z,32.85
2022-11-12T20:48:25.057Z,33.67
2022-11-12T20:51:24.736Z,32.00
2022-11-12T20:54:11.900Z,31.63
2022-11-12T20:57:00.150Z,32.63
2022-11-12T20:59:51.389Z,38.25
2022-11-12T21:02:37.772Z,33.70
2022-11-12T21:05:24.073Z,36.70
2022-11-12T21:08:09.902Z,35.70
2022-11-12T21:10:56.846Z,34.85
2022-11-12T21:13:43.265Z,36.60
2022-11-12T21:16:29.408Z,34.65
2022-11-12T21:19:15.195Z,36.30
2022-11-12T21:22:01.273Z,36.78
2022-11-12T21:24:47.099Z,37.60
2022-11-12T21:27:33.813Z,36.22
2022-11-12T21:30:20.074Z,34.83
2022-11-12T21:33:06.768Z,35.05
2022-11-12T21:35:53.539Z,37.47
2022-11-12T21:38:39.652Z,37.33
2022-11-12T21:41:28.239Z,39.08
2022-11-12T21:44:14.642Z,38.47
2022-11-12T21:47:00.847Z,39.85
2022-11-12T21:49:48.423Z,38.55
2022-11-12T21:52:35.095Z,38.55
2022-11-12T21:55:21.722Z,40.20
2022-11-12T21:58:08.146Z,38.25
2022-11-12T22:00:56.079Z,38.38
2022-11-12T22:03:42.360Z,39.88
2022-11-12T22:06:31.476Z,42.28
2022-11-12T22:09:17.973Z,39.83
2022-11-12T22:12:04.509Z,39.38
2022-11-12T22:14:50.875Z,38.58
2022-11-12T22:17:37.280Z,40.78
2022-11-12T22:20:23.278Z,39.17
2022-11-12T22:23:10.093Z,39.03
2022-11-12T22:26:00.091Z,38.55
2022-11-12T22:28:46.547Z,40.90
2022-11-12T22:31:33.098Z,41.72
2022-11-12T22:34:19.671Z,39.65
2022-11-12T22:37:05.824Z,39.78
2022-11-12T22:39:52.173Z,39.63
2022-11-12T22:42:38.172Z,39.50
2022-11-12T22:45:24.532Z,39.88
2022-11-12T22:48:10.669Z,39.80
2022-11-12T22:51:04.917Z,39.05
2022-11-12T22:53:55.741Z,38.88
2022-11-12T22:56:42.126Z,38.17
2022-11-12T22:59:28.391Z,38.58
2022-11-12T23:02:14.647Z,36.10
2022-11-12T23:05:01.189Z,37.28
2022-11-12T23:07:47.870Z,39.70
2022-11-12T23:10:33.457Z,37.00
2022-11-12T23:13:20.191Z,37.85
2022-11-12T23:16:09.368Z,38.25
2022-11-12T23:18:56.030Z,38.85
2022-11-12T23:21:41.844Z,36.75
2022-11-12T23:24:28.150Z,37.05
2022-11-12T23:27:14.378Z,36.17
2022-11-12T23:30:01.008Z,36.65
2022-11-12T23:32:46.942Z,36.55
2022-11-12T23:35:33.198Z,37.70
2022-11-12T23:38:19.142Z,35.67
2022-11-12T23:41:06.533Z,36.38
2022-11-12T23:43:54.106Z,35.75
2022-11-12T23:46:40.442Z,36.38
2022-11-12T23:49:26.479Z,32.42
2022-11-12T23:52:13.011Z,33.50
2022-11-12T23:54:59.027Z,33.42
2022-11-12T23:57:45.432Z,33.60
